sensor_id;sensor_type;location;lat;lon;timestamp;temperature;humidity
12837;DHT22;6485;51.472;5.268;2022-10-16T12:00:39;17.80;1.00
12837;DHT22;6485;51.472;5.268;2022-10-16T15:18:07;18.30;1.00
12837;DHT22;6485;51.472;5.268;2022-10-16T15:20:36;18.20;1.00
12837;DHT22;6485;51.472;5.268;2022-10-16T15:23:06;18.10;1.00
12837;DHT22;6485;51.472;5.268;2022-10-16T15:25:36;18.00;1.00
12837;DHT22;6485;51.472;5.268;2022-10-16T15:28:06;18.00;1.00
12837;DHT22;6485;51.472;5.268;2022-10-16T15:30:34;18.00;12.30
12837;DHT22;6485;51.472;5.268;2022-10-16T15:33:04;18.00;52.80
12837;DHT22;6485;51.472;5.268;2022-10-16T15:35:34;17.90;94.00
12837;DHT22;6485;51.472;5.268;2022-10-16T15:38:02;17.90;99.90
12837;DHT22;6485;51.472;5.268;2022-10-16T15:40:30;17.90;99.90
12837;DHT22;6485;51.472;5.268;2022-10-16T15:42:59;17.80;99.90
12837;DHT22;6485;51.472;5.268;2022-10-16T15:45:28;17.70;99.90
12837;DHT22;6485;51.472;5.268;2022-10-16T15:47:56;17.70;99.90
12837;DHT22;6485;51.472;5.268;2022-10-16T17:02:09;16.60;99.90
12837;DHT22;6485;51.472;5.268;2022-10-16T17:04:38;16.60;99.90
12837;DHT22;6485;51.472;5.268;2022-10-16T17:07:06;16.50;99.90
12837;DHT22;6485;51.472;5.268;2022-10-16T17:09:34;16.50;99.90
12837;DHT22;6485;51.472;5.268;2022-10-16T17:12:02;16.50;99.90
12837;DHT22;6485;51.472;5.268;2022-10-16T17:14:31;16.50;99.90
12837;DHT22;6485;51.472;5.268;2022-10-16T17:16:59;16.50;99.90
12837;DHT22;6485;51.472;5.268;2022-10-16T17:19:32;16.50;99.90
12837;DHT22;6485;51.472;5.268;2022-10-16T17:22:04;16.40;99.90
12837;DHT22;6485;51.472;5.268;2022-10-16T17:24:32;16.40;99.90
12837;DHT22;6485;51.472;5.268;2022-10-16T17:27:01;16.40;99.90
12837;DHT22;6485;51.472;5.268;2022-10-16T17:29:31;16.40;99.90
12837;DHT22;6485;51.472;5.268;2022-10-16T17:32:00;16.40;99.90
12837;DHT22;6485;51.472;5.268;2022-10-16T17:34:29;16.40;99.90
12837;DHT22;6485;51.472;5.268;2022-10-16T17:36:59;16.30;99.90
12837;DHT22;6485;51.472;5.268;2022-10-16T17:39:28;16.30;99.90
12837;DHT22;6485;51.472;5.268;2022-10-16T17:41:57;16.20;99.90
12837;DHT22;6485;51.472;5.268;2022-10-16T17:44:27;16.30;99.90
12837;DHT22;6485;51.472;5.268;2022-10-16T17:46:58;16.30;99.90
12837;DHT22;6485;51.472;5.268;2022-10-16T17:49:27;16.20;99.90
12837;DHT22;6485;51.472;5.268;2022-10-16T17:51:55;16.30;99.90
12837;DHT22;6485;51.472;5.268;2022-10-16T17:54:27;16.30;99.90
12837;DHT22;6485;51.472;5.268;2022-10-16T17:56:56;16.30;99.90
12837;DHT22;6485;51.472;5.268;2022-10-16T17:59:25;16.20;99.90
12837;DHT22;6485;51.472;5.268;2022-10-16T18:01:54;16.30;99.90
12837;DHT22;6485;51.472;5.268;2022-10-16T18:04:24;16.20;99.90
12837;DHT22;6485;51.472;5.268;2022-10-16T18:06:53;16.20;99.90
12837;DHT22;6485;51.472;5.268;2022-10-16T18:09:24;16.20;99.90
12837;DHT22;6485;51.472;5.268;2022-10-16T18:11:55;16.10;99.90
12837;DHT22;6485;51.472;5.268;2022-10-16T18:14:28;16.10;99.90
12837;DHT22;6485;51.472;5.268;2022-10-16T18:16:57;16.10;99.90
12837;DHT22;6485;51.472;5.268;2022-10-16T18:19:27;16.00;99.90
12837;DHT22;6485;51.472;5.268;2022-10-16T18:21:55;16.00;99.90
12837;DHT22;6485;51.472;5.268;2022-10-16T18:24:24;16.00;99.90
12837;DHT22;6485;51.472;5.268;2022-10-16T18:26:59;16.10;99.90
12837;DHT22;6485;51.472;5.268;2022-10-16T18:29:29;16.00;99.90
12837;DHT22;6485;51.472;5.268;2022-10-16T18:31:58;16.00;99.90
12837;DHT22;6485;51.472;5.268;2022-10-16T18:34:27;15.90;99.90
12837;DHT22;6485;51.472;5.268;2022-10-16T18:36:56;15.80;99.90
12837;DHT22;6485;51.472;5.268;2022-10-16T18:39:24;15.80;99.90
12837;DHT22;6485;51.472;5.268;2022-10-16T18:41:54;15.70;99.90
12837;DHT22;6485;51.472;5.268;2022-10-16T18:44:26;15.70;99.90
12837;DHT22;6485;51.472;5.268;2022-10-16T18:46:54;15.80;99.90
12837;DHT22;6485;51.472;5.268;2022-10-16T18:49:25;15.80;99.90
12837;DHT22;6485;51.472;5.268;2022-10-16T18:51:54;15.80;99.90
12837;DHT22;6485;51.472;5.268;2022-10-16T18:54:23;15.70;99.90
12837;DHT22;6485;51.472;5.268;2022-10-16T18:56:52;15.70;99.90
12837;DHT22;6485;51.472;5.268;2022-10-16T18:59:22;15.60;99.90
12837;DHT22;6485;51.472;5.268;2022-10-16T19:01:52;15.60;99.90
12837;DHT22;6485;51.472;5.268;2022-10-16T19:04:20;15.60;99.90
12837;DHT22;6485;51.472;5.268;2022-10-16T19:06:50;15.60;99.90
12837;DHT22;6485;51.472;5.268;2022-10-16T19:09:21;15.60;99.90
12837;DHT22;6485;51.472;5.268;2022-10-16T19:11:50;15.60;99.90
12837;DHT22;6485;51.472;5.268;2022-10-16T19:14:19;15.60;99.90
12837;DHT22;6485;51.472;5.268;2022-10-16T19:16:48;15.60;99.90
12837;DHT22;6485;51.472;5.268;2022-10-16T19:19:17;15.50;99.90
12837;DHT22;6485;51.472;5.268;2022-10-16T19:21:45;15.50;99.90
12837;DHT22;6485;51.472;5.268;2022-10-16T19:24:21;15.50;99.90
12837;DHT22;6485;51.472;5.268;2022-10-16T19:26:50;15.50;99.90
12837;DHT22;6485;51.472;5.268;2022-10-16T19:29:18;15.50;99.90
12837;DHT22;6485;51.472;5.268;2022-10-16T19:31:48;15.50;99.90
12837;DHT22;6485;51.472;5.268;2022-10-16T19:34:17;15.40;99.90
12837;DHT22;6485;51.472;5.268;2022-10-16T19:36:45;15.40;99.90
12837;DHT22;6485;51.472;5.268;2022-10-16T19:39:15;15.40;99.90
12837;DHT22;6485;51.472;5.268;2022-10-16T19:41:44;15.40;99.90
12837;DHT22;6485;51.472;5.268;2022-10-16T19:44:13;15.40;99.90
12837;DHT22;6485;51.472;5.268;2022-10-16T19:46:42;15.40;99.90
12837;DHT22;6485;51.472;5.268;2022-10-16T19:49:17;15.50;99.90
12837;DHT22;6485;51.472;5.268;2022-10-16T19:51:48;15.40;99.90
12837;DHT22;6485;51.472;5.268;2022-10-16T19:54:17;15.40;99.90
12837;DHT22;6485;51.472;5.268;2022-10-16T19:56:46;15.40;99.90
12837;DHT22;6485;51.472;5.268;2022-10-16T19:59:14;15.50;99.90
12837;DHT22;6485;51.472;5.268;2022-10-16T20:01:46;15.40;99.90
12837;DHT22;6485;51.472;5.268;2022-10-16T20:04:15;15.40;99.90
12837;DHT22;6485;51.472;5.268;2022-10-16T20:06:44;15.40;99.90
12837;DHT22;6485;51.472;5.268;2022-10-16T20:09:13;15.40;99.90
12837;DHT22;6485;51.472;5.268;2022-10-16T20:11:42;15.40;99.90
12837;DHT22;6485;51.472;5.268;2022-10-16T20:14:10;15.50;99.90
12837;DHT22;6485;51.472;5.268;2022-10-16T20:16:38;15.40;99.90
12837;DHT22;6485;51.472;5.268;2022-10-16T20:19:07;15.40;99.90
12837;DHT22;6485;51.472;5.268;2022-10-16T20:21:37;15.40;99.90
12837;DHT22;6485;51.472;5.268;2022-10-16T20:24:09;15.40;99.90
12837;DHT22;6485;51.472;5.268;2022-10-16T20:26:38;15.40;99.90
12837;DHT22;6485;51.472;5.268;2022-10-16T20:29:06;15.30;99.90
12837;DHT22;6485;51.472;5.268;2022-10-16T20:31:35;15.30;99.90
12837;DHT22;6485;51.472;5.268;2022-10-16T20:34:04;15.30;99.90
12837;DHT22;6485;51.472;5.268;2022-10-16T20:36:34;15.20;99.90
12837;DHT22;6485;51.472;5.268;2022-10-16T20:39:07;15.20;99.90
12837;DHT22;6485;51.472;5.268;2022-10-16T20:41:36;15.20;99.90
12837;DHT22;6485;51.472;5.268;2022-10-16T20:44:04;15.10;99.90
12837;DHT22;6485;51.472;5.268;2022-10-16T20:46:33;15.10;99.90
12837;DHT22;6485;51.472;5.268;2022-10-16T20:49:02;15.10;99.90
12837;DHT22;6485;51.472;5.268;2022-10-16T20:51:42;15.10;99.90
12837;DHT22;6485;51.472;5.268;2022-10-16T20:54:13;15.10;99.90
12837;DHT22;6485;51.472;5.268;2022-10-16T20:56:41;15.10;99.90
12837;DHT22;6485;51.472;5.268;2022-10-16T20:59:09;15.10;99.90
12837;DHT22;6485;51.472;5.268;2022-10-16T21:01:38;15.00;99.90
12837;DHT22;6485;51.472;5.268;2022-10-16T21:04:07;15.00;99.90
12837;DHT22;6485;51.472;5.268;2022-10-16T21:06:38;15.00;99.90
12837;DHT22;6485;51.472;5.268;2022-10-16T21:09:07;14.90;99.90
12837;DHT22;6485;51.472;5.268;2022-10-16T21:11:37;14.90;99.90
12837;DHT22;6485;51.472;5.268;2022-10-16T21:14:06;14.90;99.90
12837;DHT22;6485;51.472;5.268;2022-10-16T21:16:35;14.90;99.90
12837;DHT22;6485;51.472;5.268;2022-10-16T21:19:03;14.90;99.90
12837;DHT22;6485;51.472;5.268;2022-10-16T21:21:44;14.90;99.90
